sensor_id;sensor_type;location;lat;lon;timestamp;P1;durP1;ratioP1;P2;durP2;ratioP2
76837;SDS011;65797;47.352;8.164;2023-02-16T00:04:25;21.10;;;10.30;;
76837;SDS011;65797;47.352;8.164;2023-02-16T00:06:52;16.90;;;9.90;;
76837;SDS011;65797;47.352;8.164;2023-02-16T00:09:19;15.77;;;9.33;;
76837;SDS011;65797;47.352;8.164;2023-02-16T00:11:46;19.27;;;10.57;;
76837;SDS011;65797;47.352;8.164;2023-02-16T00:14:32;21.13;;;9.67;;
76837;SDS011;65797;47.352;8.164;2023-02-16T00:16:59;19.80;;;10.00;;
76837;SDS011;65797;47.352;8.164;2023-02-16T00:19:27;19.60;;;10.17;;
76837;SDS011;65797;47.352;8.164;2023-02-16T00:24:36;15.30;;;9.10;;
76837;SDS011;65797;47.352;8.164;2023-02-16T00:27:01;16.77;;;9.37;;
76837;SDS011;65797;47.352;8.164;2023-02-16T00:29:28;15.33;;;9.20;;
76837;SDS011;65797;47.352;8.164;2023-02-16T00:31:56;19.30;;;11.60;;
76837;SDS011;65797;47.352;8.164;2023-02-16T00:34:27;17.30;;;9.50;;
76837;SDS011;65797;47.352;8.164;2023-02-16T00:36:56;20.10;;;10.23;;
76837;SDS011;65797;47.352;8.164;2023-02-16T00:39:23;21.43;;;10.33;;
76837;SDS011;65797;47.352;8.164;2023-02-16T00:41:50;19.47;;;10.00;;
76837;SDS011;65797;47.352;8.164;2023-02-16T00:46:59;20.27;;;10.10;;
76837;SDS011;65797;47.352;8.164;2023-02-16T00:49:42;16.23;;;9.47;;
76837;SDS011;65797;47.352;8.164;2023-02-16T00:52:15;15.20;;;9.03;;
76837;SDS011;65797;47.352;8.164;2023-02-16T00:54:53;15.80;;;8.70;;
76837;SDS011;65797;47.352;8.164;2023-02-16T00:57:20;17.30;;;9.50;;
76837;SDS011;65797;47.352;8.164;2023-02-16T00:59:46;16.40;;;8.73;;
76837;SDS011;65797;47.352;8.164;2023-02-16T01:02:16;19.00;;;9.40;;
76837;SDS011;65797;47.352;8.164;2023-02-16T01:04:42;18.80;;;10.10;;
76837;SDS011;65797;47.352;8.164;2023-02-16T01:07:11;18.80;;;9.97;;
76837;SDS011;65797;47.352;8.164;2023-02-16T01:09:56;15.60;;;9.03;;
76837;SDS011;65797;47.352;8.164;2023-02-16T01:12:40;16.13;;;8.93;;
76837;SDS011;65797;47.352;8.164;2023-02-16T01:15:09;17.30;;;9.00;;
76837;SDS011;65797;47.352;8.164;2023-02-16T01:17:38;19.83;;;10.27;;
76837;SDS011;65797;47.352;8.164;2023-02-16T01:20:14;17.30;;;9.10;;
76837;SDS011;65797;47.352;8.164;2023-02-16T01:22:41;16.63;;;8.73;;
76837;SDS011;65797;47.352;8.164;2023-02-16T01:25:07;14.40;;;8.60;;
76837;SDS011;65797;47.352;8.164;2023-02-16T01:27:35;16.63;;;8.43;;
76837;SDS011;65797;47.352;8.164;2023-02-16T01:30:01;13.83;;;9.13;;
76837;SDS011;65797;47.352;8.164;2023-02-16T01:32:28;19.40;;;10.17;;
76837;SDS011;65797;47.352;8.164;2023-02-16T01:34:54;18.30;;;8.90;;
76837;SDS011;65797;47.352;8.164;2023-02-16T01:37:19;13.47;;;8.40;;
76837;SDS011;65797;47.352;8.164;2023-02-16T01:39:45;13.53;;;8.00;;
76837;SDS011;65797;47.352;8.164;2023-02-16T01:42:18;14.30;;;8.43;;
76837;SDS011;65797;47.352;8.164;2023-02-16T01:44:52;15.57;;;8.80;;
76837;SDS011;65797;47.352;8.164;2023-02-16T01:55:25;13.60;;;7.80;;
76837;SDS011;65797;47.352;8.164;2023-02-16T01:58:13;17.67;;;8.77;;
76837;SDS011;65797;47.352;8.164;2023-02-16T02:03:25;18.80;;;9.20;;
76837;SDS011;65797;47.352;8.164;2023-02-16T02:06:13;26.67;;;10.17;;
76837;SDS011;65797;47.352;8.164;2023-02-16T02:08:43;23.33;;;8.87;;
76837;SDS011;65797;47.352;8.164;2023-02-16T02:11:26;18.77;;;9.60;;
76837;SDS011;65797;47.352;8.164;2023-02-16T02:14:17;21.27;;;8.57;;
76837;SDS011;65797;47.352;8.164;2023-02-16T02:16:56;18.43;;;9.37;;
76837;SDS011;65797;47.352;8.164;2023-02-16T02:19:23;15.20;;;8.10;;
76837;SDS011;65797;47.352;8.164;2023-02-16T02:28:05;15.77;;;8.53;;
76837;SDS011;65797;47.352;8.164;2023-02-16T02:31:01;15.20;;;7.97;;
76837;SDS011;65797;47.352;8.164;2023-02-16T02:34:01;20.13;;;9.47;;
76837;SDS011;65797;47.352;8.164;2023-02-16T02:36:50;16.90;;;8.90;;
76837;SDS011;65797;47.352;8.164;2023-02-16T02:42:30;14.97;;;8.30;;
76837;SDS011;65797;47.352;8.164;2023-02-16T02:45:24;31.53;;;9.83;;
76837;SDS011;65797;47.352;8.164;2023-02-16T02:47:56;17.37;;;9.07;;
76837;SDS011;65797;47.352;8.164;2023-02-16T02:50:33;18.93;;;8.87;;
76837;SDS011;65797;47.352;8.164;2023-02-16T02:53:30;14.20;;;8.03;;
76837;SDS011;65797;47.352;8.164;2023-02-16T02:55:58;17.03;;;8.70;;
76837;SDS011;65797;47.352;8.164;2023-02-16T02:58:43;15.60;;;8.43;;
76837;SDS011;65797;47.352;8.164;2023-02-16T03:01:32;18.70;;;9.60;;
76837;SDS011;65797;47.352;8.164;2023-02-16T03:04:01;18.57;;;10.33;;
76837;SDS011;65797;47.352;8.164;2023-02-16T03:06:30;17.23;;;8.10;;
76837;SDS011;65797;47.352;8.164;2023-02-16T03:09:06;20.27;;;9.83;;
76837;SDS011;65797;47.352;8.164;2023-02-16T03:11:38;21.80;;;7.90;;
76837;SDS011;65797;47.352;8.164;2023-02-16T03:14:24;13.70;;;8.70;;
76837;SDS011;65797;47.352;8.164;2023-02-16T03:16:52;20.37;;;10.00;;
76837;SDS011;65797;47.352;8.164;2023-02-16T03:19:40;24.37;;;8.87;;
76837;SDS011;65797;47.352;8.164;2023-02-16T03:22:26;16.03;;;10.03;;
76837;SDS011;65797;47.352;8.164;2023-02-16T03:25:11;14.53;;;8.40;;
76837;SDS011;65797;47.352;8.164;2023-02-16T03:27:55;17.30;;;9.57;;
76837;SDS011;65797;47.352;8.164;2023-02-16T03:30:43;12.47;;;7.77;;
76837;SDS011;65797;47.352;8.164;2023-02-16T03:33:10;18.27;;;8.70;;
76837;SDS011;65797;47.352;8.164;2023-02-16T03:35:36;18.57;;;8.97;;
76837;SDS011;65797;47.352;8.164;2023-02-16T03:38:02;13.13;;;8.40;;
76837;SDS011;65797;47.352;8.164;2023-02-16T03:40:29;13.37;;;8.37;;
76837;SDS011;65797;47.352;8.164;2023-02-16T03:43:03;19.37;;;9.20;;
76837;SDS011;65797;47.352;8.164;2023-02-16T03:45:31;12.77;;;8.13;;
76837;SDS011;65797;47.352;8.164;2023-02-16T03:47:59;22.50;;;8.57;;
76837;SDS011;65797;47.352;8.164;2023-02-16T03:50:25;18.47;;;9.17;;
76837;SDS011;65797;47.352;8.164;2023-02-16T03:52:51;16.20;;;9.30;;
76837;SDS011;65797;47.352;8.164;2023-02-16T03:55:30;17.10;;;8.53;;
76837;SDS011;65797;47.352;8.164;2023-02-16T03:57:57;15.60;;;8.97;;
76837;SDS011;65797;47.352;8.164;2023-02-16T04:00:24;15.70;;;9.00;;
76837;SDS011;65797;47.352;8.164;2023-02-16T04:02:49;15.20;;;8.37;;
76837;SDS011;65797;47.352;8.164;2023-02-16T04:05:15;17.73;;;8.83;;
76837;SDS011;65797;47.352;8.164;2023-02-16T04:07:41;14.87;;;9.17;;
76837;SDS011;65797;47.352;8.164;2023-02-16T04:10:06;15.90;;;8.53;;
76837;SDS011;65797;47.352;8.164;2023-02-16T04:17:43;14.23;;;8.17;;
76837;SDS011;65797;47.352;8.164;2023-02-16T04:20:10;15.53;;;8.03;;
76837;SDS011;65797;47.352;8.164;2023-02-16T04:22:39;17.70;;;9.47;;
76837;SDS011;65797;47.352;8.164;2023-02-16T04:25:05;19.37;;;10.27;;
76837;SDS011;65797;47.352;8.164;2023-02-16T04:27:31;15.37;;;8.60;;
76837;SDS011;65797;47.352;8.164;2023-02-16T04:29:57;15.07;;;8.67;;
76837;SDS011;65797;47.352;8.164;2023-02-16T04:32:22;15.80;;;9.37;;
76837;SDS011;65797;47.352;8.164;2023-02-16T04:34:48;17.73;;;8.73;;
76837;SDS011;65797;47.352;8.164;2023-02-16T04:53:19;19.80;;;9.17;;
76837;SDS011;65797;47.352;8.164;2023-02-16T05:03:30;16.20;;;9.33;;
76837;SDS011;65797;47.352;8.164;2023-02-16T05:05:57;19.27;;;9.10;;
76837;SDS011;65797;47.352;8.164;2023-02-16T05:08:22;23.33;;;10.73;;
76837;SDS011;65797;47.352;8.164;2023-02-16T05:10:48;20.33;;;9.67;;
76837;SDS011;65797;47.352;8.164;2023-02-16T05:13:34;20.90;;;9.90;;
76837;SDS011;65797;47.352;8.164;2023-02-16T05:16:21;18.43;;;9.20;;
76837;SDS011;65797;47.352;8.164;2023-02-16T05:18:48;16.13;;;8.30;;
76837;SDS011;65797;47.352;8.164;2023-02-16T05:21:14;19.43;;;9.53;;
76837;SDS011;65797;47.352;8.164;2023-02-16T05:23:54;22.97;;;9.70;;
76837;SDS011;65797;47.352;8.164;2023-02-16T05:26:21;18.63;;;9.90;;
76837;SDS011;65797;47.352;8.164;2023-02-16T05:28:46;25.23;;;9.83;;
76837;SDS011;65797;47.352;8.164;2023-02-16T05:31:12;14.57;;;8.27;;
76837;SDS011;65797;47.352;8.164;2023-02-16T05:33:38;18.90;;;9.70;;
76837;SDS011;65797;47.352;8.164;2023-02-16T05:36:03;20.03;;;9.70;;
76837;SDS011;65797;47.352;8.164;2023-02-16T05:38:29;21.70;;;9.67;;
76837;SDS011;65797;47.352;8.164;2023-02-16T05:40:55;17.43;;;10.10;;
76837;SDS011;65797;47.352;8.164;2023-02-16T05:43:20;19.03;;;9.37;;
76837;SDS011;65797;47.352;8.164;2023-02-16T05:45:46;17.83;;;9.57;;
76837;SDS011;65797;47.352;8.164;2023-02-16T05:48:12;19.50;;;9.67;;
76837;SDS011;65797;47.352;8.164;2023-02-16T05:50:37;20.10;;;9.93;;
76837;SDS011;65797;47.352;8.164;2023-02-16T05:53:03;18.57;;;9.40;;
76837;SDS011;65797;47.352;8.164;2023-02-16T05:55:29;16.13;;;9.77;;
76837;SDS011;65797;47.352;8.164;2023-02-16T05:57:54;17.43;;;9.03;;
76837;SDS011;65797;47.352;8.164;2023-02-16T06:00:20;16.17;;;8.80;;
76837;SDS011;65797;47.352;8.164;2023-02-16T06:02:46;23.03;;;10.67;;
76837;SDS011;65797;47.352;8.164;2023-02-16T06:05:11;22.23;;;9.53;;
76837;SDS011;65797;47.352;8.164;2023-02-16T06:07:37;16.87;;;9.53;;
76837;SDS011;65797;47.352;8.164;2023-02-16T06:10:03;20.73;;;9.90;;
76837;SDS011;65797;47.352;8.164;2023-02-16T06:12:29;16.60;;;9.40;;
76837;SDS011;65797;47.352;8.164;2023-02-16T06:14:56;20.53;;;10.60;;
76837;SDS011;65797;47.352;8.164;2023-02-16T06:17:22;39.17;;;10.60;;
76837;SDS011;65797;47.352;8.164;2023-02-16T06:19:48;22.10;;;10.40;;
76837;SDS011;65797;47.352;8.164;2023-02-16T06:22:13;18.67;;;9.07;;
76837;SDS011;65797;47.352;8.164;2023-02-16T06:24:39;21.30;;;10.53;;
76837;SDS011;65797;47.352;8.164;2023-02-16T06:27:05;18.47;;;9.50;;
76837;SDS011;65797;47.352;8.164;2023-02-16T06:29:31;19.57;;;10.20;;
76837;SDS011;65797;47.352;8.164;2023-02-16T06:31:57;20.13;;;10.30;;
76837;SDS011;65797;47.352;8.164;2023-02-16T06:34:22;18.80;;;9.80;;
76837;SDS011;65797;47.352;8.164;2023-02-16T06:36:49;23.97;;;9.67;;
76837;SDS011;65797;47.352;8.164;2023-02-16T06:39:15;24.43;;;12.03;;
76837;SDS011;65797;47.352;8.164;2023-02-16T06:41:41;26.17;;;11.83;;
76837;SDS011;65797;47.352;8.164;2023-02-16T06:44:11;18.63;;;10.47;;
76837;SDS011;65797;47.352;8.164;2023-02-16T06:46:38;15.50;;;9.30;;
76837;SDS011;65797;47.352;8.164;2023-02-16T06:49:04;22.60;;;10.33;;
76837;SDS011;65797;47.352;8.164;2023-02-16T06:51:30;20.37;;;10.20;;
76837;SDS011;65797;47.352;8.164;2023-02-16T06:53:56;17.43;;;9.23;;
76837;SDS011;65797;47.352;8.164;2023-02-16T06:58:57;21.80;;;10.10;;
76837;SDS011;65797;47.352;8.164;2023-02-16T07:06:34;22.03;;;10.83;;
76837;SDS011;65797;47.352;8.164;2023-02-16T07:55:40;35.83;;;16.33;;
76837;SDS011;65797;47.352;8.164;2023-02-16T07:58:07;32.30;;;15.37;;
76837;SDS011;65797;47.352;8.164;2023-02-16T08:00:33;33.53;;;15.10;;
76837;SDS011;65797;47.352;8.164;2023-02-16T08:02:59;32.37;;;14.90;;
76837;SDS011;65797;47.352;8.164;2023-02-16T08:05:25;33.10;;;16.33;;
76837;SDS011;65797;47.352;8.164;2023-02-16T09:02:24;38.30;;;17.50;;
76837;SDS011;65797;47.352;8.164;2023-02-16T09:27:21;33.80;;;15.57;;
76837;SDS011;65797;47.352;8.164;2023-02-16T09:29:47;27.47;;;15.70;;
76837;SDS011;65797;47.352;8.164;2023-02-16T09:32:13;29.40;;;15.37;;
76837;SDS011;65797;47.352;8.164;2023-02-16T09:34:39;30.63;;;15.07;;
76837;SDS011;65797;47.352;8.164;2023-02-16T09:37:06;32.20;;;15.73;;
76837;SDS011;65797;47.352;8.164;2023-02-16T09:39:32;32.93;;;16.80;;
76837;SDS011;65797;47.352;8.164;2023-02-16T09:46:53;32.53;;;16.67;;
76837;SDS011;65797;47.352;8.164;2023-02-16T09:49:34;31.93;;;15.80;;
76837;SDS011;65797;47.352;8.164;2023-02-16T09:52:10;32.20;;;16.43;;
76837;SDS011;65797;47.352;8.164;2023-02-16T09:55:00;29.37;;;16.00;;
76837;SDS011;65797;47.352;8.164;2023-02-16T10:00:50;34.47;;;16.00;;
76837;SDS011;65797;47.352;8.164;2023-02-16T10:09:14;29.80;;;15.70;;
76837;SDS011;65797;47.352;8.164;2023-02-16T10:17:15;25.60;;;14.20;;
76837;SDS011;65797;47.352;8.164;2023-02-16T10:20:00;27.00;;;15.50;;
76837;SDS011;65797;47.352;8.164;2023-02-16T10:30:41;30.83;;;16.23;;
76837;SDS011;65797;47.352;8.164;2023-02-16T10:35:59;29.27;;;15.27;;
76837;SDS011;65797;47.352;8.164;2023-02-16T10:38:36;31.23;;;14.03;;
76837;SDS011;65797;47.352;8.164;2023-02-16T10:46:32;25.70;;;12.80;;
76837;SDS011;65797;47.352;8.164;2023-02-16T10:49:01;25.10;;;13.50;;
76837;SDS011;65797;47.352;8.164;2023-02-16T10:51:30;26.80;;;13.40;;
76837;SDS011;65797;47.352;8.164;2023-02-16T10:54:04;31.00;;;12.33;;
76837;SDS011;65797;47.352;8.164;2023-02-16T10:59:24;30.60;;;14.40;;
76837;SDS011;65797;47.352;8.164;2023-02-16T11:01:59;35.30;;;15.17;;
76837;SDS011;65797;47.352;8.164;2023-02-16T11:04:29;23.20;;;12.40;;
76837;SDS011;65797;47.352;8.164;2023-02-16T11:09:32;24.00;;;13.17;;
76837;SDS011;65797;47.352;8.164;2023-02-16T11:11:58;27.73;;;13.17;;
76837;SDS011;65797;47.352;8.164;2023-02-16T11:14:26;25.30;;;13.47;;
76837;SDS011;65797;47.352;8.164;2023-02-16T11:19:36;25.47;;;13.33;;
76837;SDS011;65797;47.352;8.164;2023-02-16T11:24:53;20.70;;;12.60;;
76837;SDS011;65797;47.352;8.164;2023-02-16T11:27:20;30.10;;;13.40;;
76837;SDS011;65797;47.352;8.164;2023-02-16T11:29:47;25.33;;;13.77;;
76837;SDS011;65797;47.352;8.164;2023-02-16T11:32:15;26.70;;;13.03;;
76837;SDS011;65797;47.352;8.164;2023-02-16T11:34:46;27.07;;;12.83;;
76837;SDS011;65797;47.352;8.164;2023-02-16T11:37:25;21.13;;;12.17;;
76837;SDS011;65797;47.352;8.164;2023-02-16T11:39:57;28.40;;;11.90;;
76837;SDS011;65797;47.352;8.164;2023-02-16T11:43:00;22.70;;;12.10;;
76837;SDS011;65797;47.352;8.164;2023-02-16T11:45:30;20.33;;;11.13;;
76837;SDS011;65797;47.352;8.164;2023-02-16T11:48:05;23.77;;;11.70;;
76837;SDS011;65797;47.352;8.164;2023-02-16T11:50:38;29.53;;;13.57;;
76837;SDS011;65797;47.352;8.164;2023-02-16T11:53:24;20.73;;;11.70;;
76837;SDS011;65797;47.352;8.164;2023-02-16T11:56:08;28.73;;;12.60;;
76837;SDS011;65797;47.352;8.164;2023-02-16T11:58:35;28.03;;;10.90;;
76837;SDS011;65797;47.352;8.164;2023-02-16T12:07:02;23.33;;;9.83;;
76837;SDS011;65797;47.352;8.164;2023-02-16T12:10:08;16.40;;;8.53;;
76837;SDS011;65797;47.352;8.164;2023-02-16T12:15:45;16.63;;;9.57;;
76837;SDS011;65797;47.352;8.164;2023-02-16T12:26:13;18.23;;;9.30;;
76837;SDS011;65797;47.352;8.164;2023-02-16T12:31:41;16.10;;;8.47;;
76837;SDS011;65797;47.352;8.164;2023-02-16T12:37:36;15.33;;;7.83;;
76837;SDS011;65797;47.352;8.164;2023-02-16T12:45:42;17.07;;;8.63;;
76837;SDS011;65797;47.352;8.164;2023-02-16T12:50:43;17.17;;;8.33;;
76837;SDS011;65797;47.352;8.164;2023-02-16T12:55:43;12.83;;;7.97;;
76837;SDS011;65797;47.352;8.164;2023-02-16T13:01:03;16.73;;;8.40;;
76837;SDS011;65797;47.352;8.164;2023-02-16T13:03:39;14.97;;;7.90;;
76837;SDS011;65797;47.352;8.164;2023-02-16T13:09:14;15.73;;;7.90;;
76837;SDS011;65797;47.352;8.164;2023-02-16T13:12:36;16.37;;;7.50;;
76837;SDS011;65797;47.352;8.164;2023-02-16T13:14:43;15.80;;;6.77;;
76837;SDS011;65797;47.352;8.164;2023-02-16T13:17:15;12.13;;;6.87;;
76837;SDS011;65797;47.352;8.164;2023-02-16T13:19:45;15.33;;;7.17;;
76837;SDS011;65797;47.352;8.164;2023-02-16T13:24:54;13.50;;;7.10;;
76837;SDS011;65797;47.352;8.164;2023-02-16T13:45:40;10.43;;;5.80;;
76837;SDS011;65797;47.352;8.164;2023-02-16T13:48:24;17.40;;;8.27;;
76837;SDS011;65797;47.352;8.164;2023-02-16T13:51:00;14.53;;;5.93;;
76837;SDS011;65797;47.352;8.164;2023-02-16T13:53:37;11.83;;;6.33;;
76837;SDS011;65797;47.352;8.164;2023-02-16T13:56:14;12.23;;;5.60;;
76837;SDS011;65797;47.352;8.164;2023-02-16T13:58:56;13.13;;;5.97;;
76837;SDS011;65797;47.352;8.164;2023-02-16T14:01:46;13.23;;;5.97;;
76837;SDS011;65797;47.352;8.164;2023-02-16T14:14:29;11.90;;;6.40;;
76837;SDS011;65797;47.352;8.164;2023-02-16T14:17:13;9.40;;;5.53;;
76837;SDS011;65797;47.352;8.164;2023-02-16T14:24:56;10.30;;;5.43;;
76837;SDS011;65797;47.352;8.164;2023-02-16T14:30:13;11.40;;;5.97;;
76837;SDS011;65797;47.352;8.164;2023-02-16T14:32:47;11.20;;;5.63;;
76837;SDS011;65797;47.352;8.164;2023-02-16T14:37:50;15.97;;;6.27;;
76837;SDS011;65797;47.352;8.164;2023-02-16T15:23:33;14.53;;;6.07;;
76837;SDS011;65797;47.352;8.164;2023-02-16T15:28:37;11.20;;;5.50;;
76837;SDS011;65797;47.352;8.164;2023-02-16T15:31:51;11.93;;;6.07;;
76837;SDS011;65797;47.352;8.164;2023-02-16T15:34:00;6.80;;;4.43;;
76837;SDS011;65797;47.352;8.164;2023-02-16T15:36:36;10.37;;;4.83;;
76837;SDS011;65797;47.352;8.164;2023-02-16T15:39:05;13.57;;;4.80;;
76837;SDS011;65797;47.352;8.164;2023-02-16T15:41:48;6.43;;;4.33;;
76837;SDS011;65797;47.352;8.164;2023-02-16T15:44:28;9.53;;;5.00;;
76837;SDS011;65797;47.352;8.164;2023-02-16T16:56:46;14.00;;;6.77;;
76837;SDS011;65797;47.352;8.164;2023-02-16T16:59:12;9.57;;;5.70;;
76837;SDS011;65797;47.352;8.164;2023-02-16T17:01:37;9.87;;;5.70;;
76837;SDS011;65797;47.352;8.164;2023-02-16T17:04:03;26.07;;;6.83;;
76837;SDS011;65797;47.352;8.164;2023-02-16T17:06:29;13.20;;;6.03;;
76837;SDS011;65797;47.352;8.164;2023-02-16T17:08:54;11.43;;;5.83;;
76837;SDS011;65797;47.352;8.164;2023-02-16T17:11:24;9.10;;;5.17;;
76837;SDS011;65797;47.352;8.164;2023-02-16T17:13:52;8.20;;;5.60;;
76837;SDS011;65797;47.352;8.164;2023-02-16T17:16:20;10.37;;;6.50;;
76837;SDS011;65797;47.352;8.164;2023-02-16T17:18:50;10.87;;;6.00;;
76837;SDS011;65797;47.352;8.164;2023-02-16T17:21:15;9.90;;;5.37;;
76837;SDS011;65797;47.352;8.164;2023-02-16T17:23:42;15.00;;;5.77;;
76837;SDS011;65797;47.352;8.164;2023-02-16T17:26:07;9.77;;;5.93;;
76837;SDS011;65797;47.352;8.164;2023-02-16T17:28:33;11.27;;;5.63;;
76837;SDS011;65797;47.352;8.164;2023-02-16T17:31:05;12.33;;;7.00;;
76837;SDS011;65797;47.352;8.164;2023-02-16T17:33:32;11.93;;;5.43;;
76837;SDS011;65797;47.352;8.164;2023-02-16T17:36:00;11.77;;;5.40;;
76837;SDS011;65797;47.352;8.164;2023-02-16T17:38:27;24.10;;;6.80;;
76837;SDS011;65797;47.352;8.164;2023-02-16T17:40:53;11.07;;;6.00;;
76837;SDS011;65797;47.352;8.164;2023-02-16T17:43:20;10.90;;;5.10;;
76837;SDS011;65797;47.352;8.164;2023-02-16T17:45:46;11.43;;;5.87;;
76837;SDS011;65797;47.352;8.164;2023-02-16T17:48:23;8.53;;;5.40;;
76837;SDS011;65797;47.352;8.164;2023-02-16T17:50:51;10.47;;;6.23;;
76837;SDS011;65797;47.352;8.164;2023-02-16T17:53:21;10.77;;;5.83;;
76837;SDS011;65797;47.352;8.164;2023-02-16T17:55:49;11.57;;;5.23;;
76837;SDS011;65797;47.352;8.164;2023-02-16T17:58:17;9.93;;;5.53;;
76837;SDS011;65797;47.352;8.164;2023-02-16T18:00:44;12.83;;;6.30;;
76837;SDS011;65797;47.352;8.164;2023-02-16T18:03:10;10.07;;;6.40;;
76837;SDS011;65797;47.352;8.164;2023-02-16T18:05:36;10.57;;;6.53;;
76837;SDS011;65797;47.352;8.164;2023-02-16T18:08:02;11.90;;;6.70;;
76837;SDS011;65797;47.352;8.164;2023-02-16T18:10:51;11.43;;;6.20;;
76837;SDS011;65797;47.352;8.164;2023-02-16T18:13:16;11.57;;;6.30;;
76837;SDS011;65797;47.352;8.164;2023-02-16T18:15:44;19.37;;;6.73;;
76837;SDS011;65797;47.352;8.164;2023-02-16T18:18:11;14.57;;;6.70;;
76837;SDS011;65797;47.352;8.164;2023-02-16T18:20:41;21.47;;;6.20;;
76837;SDS011;65797;47.352;8.164;2023-02-16T18:23:07;10.10;;;6.33;;
76837;SDS011;65797;47.352;8.164;2023-02-16T18:25:33;10.40;;;6.30;;
76837;SDS011;65797;47.352;8.164;2023-02-16T18:27:59;14.53;;;7.17;;
76837;SDS011;65797;47.352;8.164;2023-02-16T18:30:25;10.13;;;6.10;;
76837;SDS011;65797;47.352;8.164;2023-02-16T18:32:51;15.33;;;7.00;;
76837;SDS011;65797;47.352;8.164;2023-02-16T18:35:16;10.90;;;6.70;;
76837;SDS011;65797;47.352;8.164;2023-02-16T18:37:43;11.33;;;5.93;;
76837;SDS011;65797;47.352;8.164;2023-02-16T18:40:10;11.30;;;6.83;;
76837;SDS011;65797;47.352;8.164;2023-02-16T18:42:39;16.63;;;7.40;;
76837;SDS011;65797;47.352;8.164;2023-02-16T18:45:04;13.07;;;7.17;;
76837;SDS011;65797;47.352;8.164;2023-02-16T18:47:31;14.10;;;6.73;;
76837;SDS011;65797;47.352;8.164;2023-02-16T18:49:57;11.50;;;6.80;;
76837;SDS011;65797;47.352;8.164;2023-02-16T18:52:23;23.00;;;6.83;;
76837;SDS011;65797;47.352;8.164;2023-02-16T18:54:49;11.80;;;6.30;;
76837;SDS011;65797;47.352;8.164;2023-02-16T18:57:15;10.63;;;6.13;;
76837;SDS011;65797;47.352;8.164;2023-02-16T18:59:41;11.07;;;6.33;;
76837;SDS011;65797;47.352;8.164;2023-02-16T19:02:07;21.63;;;7.50;;
76837;SDS011;65797;47.352;8.164;2023-02-16T19:04:35;12.73;;;6.20;;
76837;SDS011;65797;47.352;8.164;2023-02-16T19:07:00;12.77;;;7.20;;
76837;SDS011;65797;47.352;8.164;2023-02-16T19:09:26;10.70;;;6.00;;
76837;SDS011;65797;47.352;8.164;2023-02-16T19:11:52;14.87;;;6.47;;
76837;SDS011;65797;47.352;8.164;2023-02-16T19:14:18;12.73;;;7.17;;
76837;SDS011;65797;47.352;8.164;2023-02-16T19:16:44;12.80;;;6.80;;
76837;SDS011;65797;47.352;8.164;2023-02-16T19:19:10;10.30;;;6.30;;
76837;SDS011;65797;47.352;8.164;2023-02-16T19:21:37;10.03;;;6.07;;
76837;SDS011;65797;47.352;8.164;2023-02-16T19:24:08;13.50;;;6.23;;
76837;SDS011;65797;47.352;8.164;2023-02-16T19:26:38;15.33;;;7.27;;
76837;SDS011;65797;47.352;8.164;2023-02-16T19:29:07;13.13;;;6.87;;
76837;SDS011;65797;47.352;8.164;2023-02-16T19:31:33;15.10;;;7.30;;
76837;SDS011;65797;47.352;8.164;2023-02-16T19:33:59;16.90;;;9.07;;
76837;SDS011;65797;47.352;8.164;2023-02-16T19:36:26;11.20;;;7.27;;
76837;SDS011;65797;47.352;8.164;2023-02-16T19:38:56;14.60;;;8.10;;
76837;SDS011;65797;47.352;8.164;2023-02-16T19:41:26;12.70;;;7.70;;
76837;SDS011;65797;47.352;8.164;2023-02-16T19:43:54;12.33;;;7.73;;
76837;SDS011;65797;47.352;8.164;2023-02-16T19:46:20;13.80;;;7.00;;
76837;SDS011;65797;47.352;8.164;2023-02-16T19:48:46;12.07;;;6.80;;
76837;SDS011;65797;47.352;8.164;2023-02-16T19:51:14;11.40;;;6.70;;
76837;SDS011;65797;47.352;8.164;2023-02-16T19:53:40;12.50;;;7.00;;
76837;SDS011;65797;47.352;8.164;2023-02-16T19:56:14;12.00;;;7.57;;
76837;SDS011;65797;47.352;8.164;2023-02-16T19:58:41;13.23;;;7.37;;
76837;SDS011;65797;47.352;8.164;2023-02-16T20:01:14;21.97;;;7.50;;
76837;SDS011;65797;47.352;8.164;2023-02-16T20:03:47;11.10;;;7.17;;
76837;SDS011;65797;47.352;8.164;2023-02-16T20:06:15;12.33;;;7.13;;
76837;SDS011;65797;47.352;8.164;2023-02-16T20:08:52;13.53;;;6.27;;
76837;SDS011;65797;47.352;8.164;2023-02-16T20:11:19;14.17;;;8.20;;
76837;SDS011;65797;47.352;8.164;2023-02-16T20:13:47;14.60;;;7.23;;
76837;SDS011;65797;47.352;8.164;2023-02-16T20:16:13;11.20;;;7.20;;
76837;SDS011;65797;47.352;8.164;2023-02-16T20:18:40;10.57;;;6.20;;
76837;SDS011;65797;47.352;8.164;2023-02-16T20:21:07;16.27;;;6.93;;
76837;SDS011;65797;47.352;8.164;2023-02-16T20:23:35;9.90;;;6.80;;
76837;SDS011;65797;47.352;8.164;2023-02-16T20:26:08;13.20;;;6.87;;
76837;SDS011;65797;47.352;8.164;2023-02-16T20:28:36;11.80;;;7.70;;
76837;SDS011;65797;47.352;8.164;2023-02-16T20:31:02;14.20;;;7.33;;
76837;SDS011;65797;47.352;8.164;2023-02-16T20:33:33;14.50;;;7.63;;
76837;SDS011;65797;47.352;8.164;2023-02-16T20:35:59;13.23;;;7.57;;
76837;SDS011;65797;47.352;8.164;2023-02-16T20:38:25;14.83;;;8.10;;
76837;SDS011;65797;47.352;8.164;2023-02-16T20:40:50;11.23;;;7.47;;
76837;SDS011;65797;47.352;8.164;2023-02-16T20:43:17;19.17;;;8.10;;
76837;SDS011;65797;47.352;8.164;2023-02-16T20:45:45;14.00;;;7.77;;
76837;SDS011;65797;47.352;8.164;2023-02-16T20:48:11;13.00;;;7.57;;
76837;SDS011;65797;47.352;8.164;2023-02-16T20:50:37;15.50;;;7.13;;
76837;SDS011;65797;47.352;8.164;2023-02-16T20:53:03;14.97;;;8.00;;
76837;SDS011;65797;47.352;8.164;2023-02-16T20:55:29;17.83;;;7.90;;
76837;SDS011;65797;47.352;8.164;2023-02-16T20:57:56;15.40;;;8.37;;
76837;SDS011;65797;47.352;8.164;2023-02-16T21:00:22;18.00;;;8.40;;
76837;SDS011;65797;47.352;8.164;2023-02-16T21:02:48;12.27;;;7.60;;
76837;SDS011;65797;47.352;8.164;2023-02-16T21:05:15;16.30;;;8.70;;
76837;SDS011;65797;47.352;8.164;2023-02-16T21:07:40;15.90;;;7.97;;
76837;SDS011;65797;47.352;8.164;2023-02-16T21:10:07;14.03;;;8.60;;
76837;SDS011;65797;47.352;8.164;2023-02-16T21:12:34;13.70;;;8.60;;
76837;SDS011;65797;47.352;8.164;2023-02-16T21:15:00;16.37;;;8.47;;
76837;SDS011;65797;47.352;8.164;2023-02-16T21:17:26;12.10;;;7.80;;
76837;SDS011;65797;47.352;8.164;2023-02-16T21:19:52;12.53;;;7.90;;
76837;SDS011;65797;47.352;8.164;2023-02-16T21:22:17;16.73;;;8.10;;
76837;SDS011;65797;47.352;8.164;2023-02-16T21:24:43;18.57;;;7.70;;
76837;SDS011;65797;47.352;8.164;2023-02-16T21:27:09;14.53;;;7.93;;
76837;SDS011;65797;47.352;8.164;2023-02-16T21:29:35;12.47;;;7.63;;
76837;SDS011;65797;47.352;8.164;2023-02-16T21:32:02;19.17;;;8.10;;
76837;SDS011;65797;47.352;8.164;2023-02-16T21:34:28;13.13;;;6.73;;
76837;SDS011;65797;47.352;8.164;2023-02-16T21:36:54;16.07;;;8.50;;
76837;SDS011;65797;47.352;8.164;2023-02-16T21:39:20;14.20;;;8.50;;
76837;SDS011;65797;47.352;8.164;2023-02-16T21:42:09;11.77;;;6.90;;
76837;SDS011;65797;47.352;8.164;2023-02-16T21:44:35;17.90;;;6.70;;
76837;SDS011;65797;47.352;8.164;2023-02-16T21:47:10;12.93;;;6.80;;
76837;SDS011;65797;47.352;8.164;2023-02-16T21:49:56;10.03;;;6.30;;
76837;SDS011;65797;47.352;8.164;2023-02-16T21:52:22;11.50;;;6.33;;
76837;SDS011;65797;47.352;8.164;2023-02-16T21:54:48;11.90;;;7.10;;
76837;SDS011;65797;47.352;8.164;2023-02-16T21:57:32;11.77;;;7.20;;
76837;SDS011;65797;47.352;8.164;2023-02-16T21:59:58;11.93;;;7.07;;
76837;SDS011;65797;47.352;8.164;2023-02-16T22:02:24;13.77;;;7.07;;